VVCI

Cat Bi International Airport

Haiphong, Vietnam
TAF VVCI 212300Z 2200/2224 05006KT 9999 BKN035
Issued Valid From Valid To
Jan-21 @ 23:00 UTC
(an hour ago)
Jan-22 @ 00:00 UTC
(6 minutes ago)
Jan-23 @ 00:00 UTC
(in 24 hours)
Jan-22 @ 00:00 to Jan-23 @ 00:00
TAF VVCI 212300Z 2200/2224 05006KT 9999 BKN035
Wind Visibility Clouds
50° at 6 knots 10,000+ meters
  • Broken at 3,500' AGL
TAF VVCI 212300Z 2200/2224 05006KT 9999 BKN035
Issued Jan-21 @ 23:00 UTC
(an hour ago)
Valid From Jan-22 @ 00:00 UTC
(6 minutes ago)
Valid To Jan-23 @ 00:00 UTC
(in 24 hours)
Jan-22 @ 00:00 - Jan-23 @ 00:00
Wind Visibility
50° at 6 knots 10,000+ meters
Clouds
  • Broken at 3,500' AGL